sensor_id;sensor_type;location;lat;lon;timestamp;P1;durP1;ratioP1;P2;durP2;ratioP2
1178;SDS011;578;48.408;10.004;2023-02-18T00:00:26;3.55;;;2.60;;
1178;SDS011;578;48.408;10.004;2023-02-18T00:02:53;5.00;;;2.97;;
1178;SDS011;578;48.408;10.004;2023-02-18T00:05:21;4.40;;;2.80;;
1178;SDS011;578;48.408;10.004;2023-02-18T00:07:47;2.90;;;2.50;;
1178;SDS011;578;48.408;10.004;2023-02-18T00:10:14;3.67;;;2.77;;
1178;SDS011;578;48.408;10.004;2023-02-18T00:12:43;5.22;;;3.70;;
1178;SDS011;578;48.408;10.004;2023-02-18T00:15:10;5.20;;;2.63;;
1178;SDS011;578;48.408;10.004;2023-02-18T00:17:37;5.80;;;2.90;;
1178;SDS011;578;48.408;10.004;2023-02-18T00:20:04;4.25;;;2.42;;
1178;SDS011;578;48.408;10.004;2023-02-18T00:22:32;3.42;;;2.00;;
1178;SDS011;578;48.408;10.004;2023-02-18T00:24:59;4.70;;;2.20;;
1178;SDS011;578;48.408;10.004;2023-02-18T00:27:26;3.15;;;2.40;;
1178;SDS011;578;48.408;10.004;2023-02-18T00:29:54;3.50;;;2.28;;
1178;SDS011;578;48.408;10.004;2023-02-18T00:32:21;2.08;;;1.77;;
1178;SDS011;578;48.408;10.004;2023-02-18T00:34:47;3.40;;;2.10;;
1178;SDS011;578;48.408;10.004;2023-02-18T00:37:14;2.50;;;2.30;;
1178;SDS011;578;48.408;10.004;2023-02-18T00:39:41;2.63;;;1.92;;
1178;SDS011;578;48.408;10.004;2023-02-18T00:42:08;2.50;;;2.20;;
1178;SDS011;578;48.408;10.004;2023-02-18T00:44:34;3.50;;;2.20;;
1178;SDS011;578;48.408;10.004;2023-02-18T00:47:02;4.50;;;1.90;;
1178;SDS011;578;48.408;10.004;2023-02-18T00:49:29;2.35;;;1.70;;
1178;SDS011;578;48.408;10.004;2023-02-18T00:51:56;3.63;;;1.80;;
1178;SDS011;578;48.408;10.004;2023-02-18T00:54:23;2.30;;;1.60;;
1178;SDS011;578;48.408;10.004;2023-02-18T00:56:49;2.40;;;1.60;;
1178;SDS011;578;48.408;10.004;2023-02-18T00:59:16;2.88;;;1.90;;
1178;SDS011;578;48.408;10.004;2023-02-18T01:01:43;3.85;;;2.20;;
1178;SDS011;578;48.408;10.004;2023-02-18T01:04:11;2.53;;;1.70;;
1178;SDS011;578;48.408;10.004;2023-02-18T01:06:38;3.10;;;1.90;;
1178;SDS011;578;48.408;10.004;2023-02-18T01:09:04;2.00;;;1.73;;
1178;SDS011;578;48.408;10.004;2023-02-18T01:11:31;3.08;;;1.90;;
1178;SDS011;578;48.408;10.004;2023-02-18T01:13:58;2.47;;;1.80;;
1178;SDS011;578;48.408;10.004;2023-02-18T01:16:25;2.70;;;1.83;;
1178;SDS011;578;48.408;10.004;2023-02-18T01:18:51;2.95;;;2.10;;
1178;SDS011;578;48.408;10.004;2023-02-18T01:21:19;3.67;;;2.10;;
1178;SDS011;578;48.408;10.004;2023-02-18T01:23:46;3.20;;;2.30;;
1178;SDS011;578;48.408;10.004;2023-02-18T01:26:13;2.97;;;2.00;;
1178;SDS011;578;48.408;10.004;2023-02-18T01:28:40;3.00;;;2.10;;
1178;SDS011;578;48.408;10.004;2023-02-18T01:31:07;2.97;;;2.50;;
1178;SDS011;578;48.408;10.004;2023-02-18T01:33:36;3.50;;;2.28;;
1178;SDS011;578;48.408;10.004;2023-02-18T01:36:03;3.00;;;2.43;;
1178;SDS011;578;48.408;10.004;2023-02-18T01:38:32;3.90;;;2.40;;
1178;SDS011;578;48.408;10.004;2023-02-18T01:40:59;3.78;;;2.50;;
1178;SDS011;578;48.408;10.004;2023-02-18T01:43:25;2.90;;;2.60;;
1178;SDS011;578;48.408;10.004;2023-02-18T01:45:56;3.35;;;2.30;;
1178;SDS011;578;48.408;10.004;2023-02-18T01:48:28;2.75;;;2.28;;
1178;SDS011;578;48.408;10.004;2023-02-18T01:50:59;3.60;;;2.47;;
1178;SDS011;578;48.408;10.004;2023-02-18T01:53:34;3.95;;;2.90;;
1178;SDS011;578;48.408;10.004;2023-02-18T01:56:03;4.57;;;2.93;;
1178;SDS011;578;48.408;10.004;2023-02-18T01:58:33;3.88;;;2.80;;
1178;SDS011;578;48.408;10.004;2023-02-18T02:01:00;4.20;;;2.90;;
1178;SDS011;578;48.408;10.004;2023-02-18T02:03:27;3.40;;;2.70;;
1178;SDS011;578;48.408;10.004;2023-02-18T02:05:53;3.70;;;2.90;;
1178;SDS011;578;48.408;10.004;2023-02-18T02:08:20;3.50;;;2.63;;
1178;SDS011;578;48.408;10.004;2023-02-18T02:11:00;4.50;;;2.92;;
1178;SDS011;578;48.408;10.004;2023-02-18T02:13:36;4.10;;;2.95;;
1178;SDS011;578;48.408;10.004;2023-02-18T02:16:17;5.30;;;2.80;;
1178;SDS011;578;48.408;10.004;2023-02-18T02:18:54;3.70;;;2.88;;
1178;SDS011;578;48.408;10.004;2023-02-18T02:24:48;3.60;;;2.90;;
1178;SDS011;578;48.408;10.004;2023-02-18T02:27:44;3.83;;;2.90;;
1178;SDS011;578;48.408;10.004;2023-02-18T02:30:41;3.90;;;3.13;;
1178;SDS011;578;48.408;10.004;2023-02-18T02:33:27;3.93;;;3.10;;
1178;SDS011;578;48.408;10.004;2023-02-18T02:36:11;4.05;;;3.20;;
1178;SDS011;578;48.408;10.004;2023-02-18T02:38:43;3.80;;;2.85;;
1178;SDS011;578;48.408;10.004;2023-02-18T02:41:22;3.95;;;2.97;;
1178;SDS011;578;48.408;10.004;2023-02-18T02:44:01;5.00;;;3.08;;
1178;SDS011;578;48.408;10.004;2023-02-18T02:46:37;5.30;;;2.95;;
1178;SDS011;578;48.408;10.004;2023-02-18T02:49:07;5.30;;;2.80;;
1178;SDS011;578;48.408;10.004;2023-02-18T02:51:45;3.80;;;2.70;;
1178;SDS011;578;48.408;10.004;2023-02-18T02:54:18;3.50;;;2.80;;
1178;SDS011;578;48.408;10.004;2023-02-18T02:56:46;4.95;;;2.80;;
1178;SDS011;578;48.408;10.004;2023-02-18T02:59:14;4.15;;;2.70;;
1178;SDS011;578;48.408;10.004;2023-02-18T03:01:48;5.18;;;2.90;;
1178;SDS011;578;48.408;10.004;2023-02-18T03:04:30;4.60;;;2.90;;
1178;SDS011;578;48.408;10.004;2023-02-18T03:07:29;3.60;;;2.75;;
1178;SDS011;578;48.408;10.004;2023-02-18T03:10:16;4.60;;;3.00;;
1178;SDS011;578;48.408;10.004;2023-02-18T03:13:03;3.80;;;2.78;;
1178;SDS011;578;48.408;10.004;2023-02-18T03:15:38;3.63;;;2.60;;
1178;SDS011;578;48.408;10.004;2023-02-18T03:18:14;3.22;;;2.58;;
1178;SDS011;578;48.408;10.004;2023-02-18T03:20:49;3.85;;;2.78;;
1178;SDS011;578;48.408;10.004;2023-02-18T03:23:21;4.30;;;2.80;;
1178;SDS011;578;48.408;10.004;2023-02-18T03:25:52;3.65;;;2.60;;
1178;SDS011;578;48.408;10.004;2023-02-18T03:28:22;3.22;;;2.40;;
1178;SDS011;578;48.408;10.004;2023-02-18T03:30:52;3.67;;;2.38;;
1178;SDS011;578;48.408;10.004;2023-02-18T03:33:22;3.25;;;2.45;;
1178;SDS011;578;48.408;10.004;2023-02-18T03:35:53;4.90;;;2.33;;
1178;SDS011;578;48.408;10.004;2023-02-18T03:38:23;4.00;;;2.20;;
1178;SDS011;578;48.408;10.004;2023-02-18T03:40:54;4.78;;;2.50;;
1178;SDS011;578;48.408;10.004;2023-02-18T03:43:21;2.80;;;2.40;;
1178;SDS011;578;48.408;10.004;2023-02-18T03:45:48;3.38;;;2.30;;
1178;SDS011;578;48.408;10.004;2023-02-18T03:48:15;3.03;;;2.42;;
1178;SDS011;578;48.408;10.004;2023-02-18T03:50:42;2.60;;;2.10;;
1178;SDS011;578;48.408;10.004;2023-02-18T03:53:08;5.30;;;2.60;;
1178;SDS011;578;48.408;10.004;2023-02-18T03:55:36;4.10;;;2.65;;
1178;SDS011;578;48.408;10.004;2023-02-18T03:58:03;3.73;;;2.10;;
1178;SDS011;578;48.408;10.004;2023-02-18T04:00:30;4.50;;;3.00;;
1178;SDS011;578;48.408;10.004;2023-02-18T04:02:57;2.75;;;2.10;;
1178;SDS011;578;48.408;10.004;2023-02-18T04:05:23;2.70;;;2.10;;
1178;SDS011;578;48.408;10.004;2023-02-18T04:07:50;2.90;;;2.20;;
1178;SDS011;578;48.408;10.004;2023-02-18T04:10:17;3.13;;;2.25;;
1178;SDS011;578;48.408;10.004;2023-02-18T04:12:46;3.13;;;2.05;;
1178;SDS011;578;48.408;10.004;2023-02-18T04:15:12;3.20;;;2.10;;
1178;SDS011;578;48.408;10.004;2023-02-18T04:17:39;2.50;;;2.20;;
1178;SDS011;578;48.408;10.004;2023-02-18T04:20:06;2.40;;;2.00;;
1178;SDS011;578;48.408;10.004;2023-02-18T04:22:33;2.53;;;2.10;;
1178;SDS011;578;48.408;10.004;2023-02-18T04:25:00;4.90;;;2.50;;
1178;SDS011;578;48.408;10.004;2023-02-18T04:27:26;3.80;;;2.10;;
1178;SDS011;578;48.408;10.004;2023-02-18T04:29:54;2.70;;;2.10;;
1178;SDS011;578;48.408;10.004;2023-02-18T04:32:21;2.30;;;2.00;;
1178;SDS011;578;48.408;10.004;2023-02-18T04:34:48;2.40;;;2.10;;
1178;SDS011;578;48.408;10.004;2023-02-18T04:37:14;3.33;;;2.00;;
1178;SDS011;578;48.408;10.004;2023-02-18T04:39:41;3.70;;;2.17;;
1178;SDS011;578;48.408;10.004;2023-02-18T04:42:08;3.20;;;2.10;;
1178;SDS011;578;48.408;10.004;2023-02-18T04:44:34;2.63;;;2.15;;
1178;SDS011;578;48.408;10.004;2023-02-18T04:47:03;3.17;;;2.30;;
1178;SDS011;578;48.408;10.004;2023-02-18T04:49:30;2.40;;;2.20;;
1178;SDS011;578;48.408;10.004;2023-02-18T04:51:57;2.50;;;1.90;;
1178;SDS011;578;48.408;10.004;2023-02-18T04:54:24;2.90;;;2.17;;
1178;SDS011;578;48.408;10.004;2023-02-18T04:56:51;3.53;;;2.50;;
1178;SDS011;578;48.408;10.004;2023-02-18T04:59:17;3.17;;;2.30;;
1178;SDS011;578;48.408;10.004;2023-02-18T05:01:44;2.93;;;2.30;;
1178;SDS011;578;48.408;10.004;2023-02-18T05:04:12;3.10;;;2.80;;
1178;SDS011;578;48.408;10.004;2023-02-18T05:06:39;3.40;;;2.80;;
1178;SDS011;578;48.408;10.004;2023-02-18T05:09:07;3.50;;;2.60;;
1178;SDS011;578;48.408;10.004;2023-02-18T05:11:33;3.85;;;3.10;;
1178;SDS011;578;48.408;10.004;2023-02-18T05:14:00;3.70;;;2.90;;
1178;SDS011;578;48.408;10.004;2023-02-18T05:16:27;3.42;;;3.00;;
1178;SDS011;578;48.408;10.004;2023-02-18T05:18:54;3.40;;;3.00;;
1178;SDS011;578;48.408;10.004;2023-02-18T05:21:22;5.28;;;3.38;;
1178;SDS011;578;48.408;10.004;2023-02-18T05:23:49;4.10;;;3.42;;
1178;SDS011;578;48.408;10.004;2023-02-18T05:26:15;3.47;;;3.17;;
1178;SDS011;578;48.408;10.004;2023-02-18T05:28:42;4.35;;;3.40;;
1178;SDS011;578;48.408;10.004;2023-02-18T05:31:09;4.10;;;3.33;;
1178;SDS011;578;48.408;10.004;2023-02-18T05:33:35;5.17;;;3.60;;
1178;SDS011;578;48.408;10.004;2023-02-18T05:36:02;4.87;;;3.50;;
1178;SDS011;578;48.408;10.004;2023-02-18T05:38:31;4.22;;;3.28;;
1178;SDS011;578;48.408;10.004;2023-02-18T05:40:57;4.00;;;3.30;;
1178;SDS011;578;48.408;10.004;2023-02-18T05:43:24;5.30;;;4.15;;
1178;SDS011;578;48.408;10.004;2023-02-18T05:45:51;6.47;;;4.30;;
1178;SDS011;578;48.408;10.004;2023-02-18T05:48:17;5.10;;;4.10;;
1178;SDS011;578;48.408;10.004;2023-02-18T05:50:44;5.10;;;4.03;;
1178;SDS011;578;48.408;10.004;2023-02-18T05:53:11;4.13;;;3.72;;
1178;SDS011;578;48.408;10.004;2023-02-18T05:55:39;5.47;;;3.90;;
1178;SDS011;578;48.408;10.004;2023-02-18T05:58:05;3.78;;;3.30;;
1178;SDS011;578;48.408;10.004;2023-02-18T06:00:32;4.30;;;3.60;;
1178;SDS011;578;48.408;10.004;2023-02-18T06:02:59;4.57;;;3.72;;
1178;SDS011;578;48.408;10.004;2023-02-18T06:05:26;4.05;;;3.63;;
1178;SDS011;578;48.408;10.004;2023-02-18T06:07:52;4.20;;;3.60;;
1178;SDS011;578;48.408;10.004;2023-02-18T06:10:19;4.40;;;3.70;;
1178;SDS011;578;48.408;10.004;2023-02-18T06:12:47;4.03;;;3.53;;
1178;SDS011;578;48.408;10.004;2023-02-18T06:15:14;4.45;;;3.50;;
1178;SDS011;578;48.408;10.004;2023-02-18T06:17:40;3.60;;;3.30;;
1178;SDS011;578;48.408;10.004;2023-02-18T06:20:07;3.50;;;3.20;;
1178;SDS011;578;48.408;10.004;2023-02-18T06:22:35;4.35;;;3.70;;
1178;SDS011;578;48.408;10.004;2023-02-18T06:25:01;3.47;;;3.15;;
1178;SDS011;578;48.408;10.004;2023-02-18T06:27:28;4.25;;;3.35;;
1178;SDS011;578;48.408;10.004;2023-02-18T06:29:56;5.00;;;3.58;;
1178;SDS011;578;48.408;10.004;2023-02-18T06:32:23;4.70;;;3.80;;
1178;SDS011;578;48.408;10.004;2023-02-18T06:34:49;5.72;;;3.63;;
1178;SDS011;578;48.408;10.004;2023-02-18T06:37:16;4.25;;;3.35;;
1178;SDS011;578;48.408;10.004;2023-02-18T06:39:43;3.90;;;3.30;;
1178;SDS011;578;48.408;10.004;2023-02-18T06:42:09;4.13;;;3.20;;
1178;SDS011;578;48.408;10.004;2023-02-18T06:44:36;4.30;;;3.38;;
1178;SDS011;578;48.408;10.004;2023-02-18T06:47:04;3.83;;;3.08;;
1178;SDS011;578;48.408;10.004;2023-02-18T06:49:31;5.35;;;3.13;;
1178;SDS011;578;48.408;10.004;2023-02-18T06:51:58;4.32;;;3.17;;
1178;SDS011;578;48.408;10.004;2023-02-18T06:54:24;3.80;;;2.72;;
1178;SDS011;578;48.408;10.004;2023-02-18T06:56:51;3.78;;;2.40;;
1178;SDS011;578;48.408;10.004;2023-02-18T06:59:18;2.60;;;2.40;;
1178;SDS011;578;48.408;10.004;2023-02-18T07:01:44;2.90;;;2.30;;
1178;SDS011;578;48.408;10.004;2023-02-18T07:04:12;4.05;;;2.30;;
1178;SDS011;578;48.408;10.004;2023-02-18T07:06:39;2.67;;;2.20;;
1178;SDS011;578;48.408;10.004;2023-02-18T07:09:06;1.93;;;1.70;;
1178;SDS011;578;48.408;10.004;2023-02-18T07:11:33;2.15;;;1.63;;
1178;SDS011;578;48.408;10.004;2023-02-18T07:13:59;2.47;;;1.52;;
1178;SDS011;578;48.408;10.004;2023-02-18T07:16:26;2.83;;;1.80;;
1178;SDS011;578;48.408;10.004;2023-02-18T07:18:53;3.88;;;1.85;;
1178;SDS011;578;48.408;10.004;2023-02-18T07:21:21;3.13;;;2.10;;
1178;SDS011;578;48.408;10.004;2023-02-18T07:23:47;3.67;;;2.13;;
1178;SDS011;578;48.408;10.004;2023-02-18T07:26:14;2.97;;;2.17;;
1178;SDS011;578;48.408;10.004;2023-02-18T07:28:41;4.10;;;2.20;;
1178;SDS011;578;48.408;10.004;2023-02-18T07:31:08;3.95;;;2.00;;
1178;SDS011;578;48.408;10.004;2023-02-18T07:33:34;3.87;;;2.00;;
1178;SDS011;578;48.408;10.004;2023-02-18T07:36:02;3.33;;;2.15;;
1178;SDS011;578;48.408;10.004;2023-02-18T07:38:30;2.85;;;1.80;;
1178;SDS011;578;48.408;10.004;2023-02-18T07:40:57;3.72;;;1.88;;
1178;SDS011;578;48.408;10.004;2023-02-18T07:43:24;2.50;;;1.60;;
1178;SDS011;578;48.408;10.004;2023-02-18T07:45:51;2.13;;;1.60;;
1178;SDS011;578;48.408;10.004;2023-02-18T07:48:18;1.80;;;1.40;;
1178;SDS011;578;48.408;10.004;2023-02-18T07:50:44;3.47;;;1.10;;
1178;SDS011;578;48.408;10.004;2023-02-18T07:53:12;1.85;;;1.30;;
1178;SDS011;578;48.408;10.004;2023-02-18T07:55:41;2.38;;;1.40;;
1178;SDS011;578;48.408;10.004;2023-02-18T07:58:14;2.20;;;1.50;;
1178;SDS011;578;48.408;10.004;2023-02-18T08:00:41;2.00;;;1.40;;
1178;SDS011;578;48.408;10.004;2023-02-18T08:03:08;1.40;;;1.10;;
1178;SDS011;578;48.408;10.004;2023-02-18T08:05:34;1.70;;;1.20;;
1178;SDS011;578;48.408;10.004;2023-02-18T08:08:01;1.70;;;1.17;;
1178;SDS011;578;48.408;10.004;2023-02-18T08:10:28;1.50;;;1.25;;
1178;SDS011;578;48.408;10.004;2023-02-18T08:12:56;1.60;;;0.98;;
1178;SDS011;578;48.408;10.004;2023-02-18T08:15:23;1.80;;;1.20;;
1178;SDS011;578;48.408;10.004;2023-02-18T08:17:49;2.40;;;1.27;;
1178;SDS011;578;48.408;10.004;2023-02-18T08:20:16;1.55;;;1.10;;
1178;SDS011;578;48.408;10.004;2023-02-18T08:22:42;1.30;;;0.90;;
1178;SDS011;578;48.408;10.004;2023-02-18T08:25:09;1.40;;;1.08;;
1178;SDS011;578;48.408;10.004;2023-02-18T08:27:36;1.67;;;1.17;;
1178;SDS011;578;48.408;10.004;2023-02-18T08:30:04;1.70;;;1.30;;
1178;SDS011;578;48.408;10.004;2023-02-18T08:32:32;1.40;;;0.80;;
1178;SDS011;578;48.408;10.004;2023-02-18T08:34:59;1.48;;;1.10;;
1178;SDS011;578;48.408;10.004;2023-02-18T08:37:25;2.50;;;1.20;;
1178;SDS011;578;48.408;10.004;2023-02-18T08:39:52;2.05;;;1.20;;
1178;SDS011;578;48.408;10.004;2023-02-18T08:42:19;1.77;;;1.10;;
1178;SDS011;578;48.408;10.004;2023-02-18T08:44:45;2.30;;;1.10;;
1178;SDS011;578;48.408;10.004;2023-02-18T08:47:13;1.80;;;1.10;;
1178;SDS011;578;48.408;10.004;2023-02-18T08:49:40;3.25;;;1.55;;
1178;SDS011;578;48.408;10.004;2023-02-18T08:52:07;1.85;;;1.20;;
1178;SDS011;578;48.408;10.004;2023-02-18T08:54:34;1.50;;;1.10;;
1178;SDS011;578;48.408;10.004;2023-02-18T08:57:00;1.20;;;0.80;;
1178;SDS011;578;48.408;10.004;2023-02-18T08:59:27;2.70;;;1.10;;
1178;SDS011;578;48.408;10.004;2023-02-18T09:01:54;1.60;;;1.00;;
1178;SDS011;578;48.408;10.004;2023-02-18T09:04:22;1.27;;;0.90;;
1178;SDS011;578;48.408;10.004;2023-02-18T09:06:48;1.70;;;1.10;;
1178;SDS011;578;48.408;10.004;2023-02-18T09:09:15;1.30;;;1.00;;
1178;SDS011;578;48.408;10.004;2023-02-18T09:11:42;1.45;;;0.88;;
1178;SDS011;578;48.408;10.004;2023-02-18T09:14:10;1.40;;;0.80;;
1178;SDS011;578;48.408;10.004;2023-02-18T09:16:37;2.22;;;0.93;;
1178;SDS011;578;48.408;10.004;2023-02-18T09:19:05;1.25;;;0.70;;
1178;SDS011;578;48.408;10.004;2023-02-18T09:21:33;1.40;;;0.70;;
1178;SDS011;578;48.408;10.004;2023-02-18T09:24:00;1.17;;;0.70;;
1178;SDS011;578;48.408;10.004;2023-02-18T09:26:26;1.05;;;0.80;;
1178;SDS011;578;48.408;10.004;2023-02-18T09:28:54;1.70;;;0.80;;
1178;SDS011;578;48.408;10.004;2023-02-18T09:31:22;2.17;;;1.20;;
1178;SDS011;578;48.408;10.004;2023-02-18T09:33:52;1.83;;;1.20;;
1178;SDS011;578;48.408;10.004;2023-02-18T09:36:20;2.20;;;1.00;;
1178;SDS011;578;48.408;10.004;2023-02-18T09:38:48;3.67;;;1.80;;
1178;SDS011;578;48.408;10.004;2023-02-18T09:41:18;1.98;;;0.80;;
1178;SDS011;578;48.408;10.004;2023-02-18T09:43:54;1.42;;;0.80;;
1178;SDS011;578;48.408;10.004;2023-02-18T09:46:25;1.27;;;0.80;;
1178;SDS011;578;48.408;10.004;2023-02-18T09:48:55;1.75;;;0.70;;
1178;SDS011;578;48.408;10.004;2023-02-18T09:51:23;2.58;;;0.80;;
1178;SDS011;578;48.408;10.004;2023-02-18T09:53:51;1.58;;;0.63;;
1178;SDS011;578;48.408;10.004;2023-02-18T09:56:19;2.00;;;0.90;;
1178;SDS011;578;48.408;10.004;2023-02-18T09:58:48;1.38;;;0.82;;
1178;SDS011;578;48.408;10.004;2023-02-18T10:01:26;1.05;;;0.60;;
1178;SDS011;578;48.408;10.004;2023-02-18T10:03:57;2.30;;;0.88;;
1178;SDS011;578;48.408;10.004;2023-02-18T10:06:29;1.50;;;0.80;;
1178;SDS011;578;48.408;10.004;2023-02-18T10:09:00;1.08;;;0.73;;
1178;SDS011;578;48.408;10.004;2023-02-18T10:11:30;1.20;;;0.60;;
1178;SDS011;578;48.408;10.004;2023-02-18T10:14:00;1.60;;;0.90;;
1178;SDS011;578;48.408;10.004;2023-02-18T10:16:28;1.10;;;0.80;;
1178;SDS011;578;48.408;10.004;2023-02-18T10:18:56;1.90;;;1.10;;
1178;SDS011;578;48.408;10.004;2023-02-18T10:21:25;1.30;;;0.70;;
1178;SDS011;578;48.408;10.004;2023-02-18T10:23:56;1.10;;;0.70;;
1178;SDS011;578;48.408;10.004;2023-02-18T10:26:29;1.20;;;0.60;;
1178;SDS011;578;48.408;10.004;2023-02-18T10:28:58;1.65;;;0.88;;
1178;SDS011;578;48.408;10.004;2023-02-18T10:31:28;1.40;;;0.90;;
1178;SDS011;578;48.408;10.004;2023-02-18T10:33:59;1.60;;;0.80;;
1178;SDS011;578;48.408;10.004;2023-02-18T10:36:35;4.95;;;4.45;;
1178;SDS011;578;48.408;10.004;2023-02-18T10:42:04;1.60;;;1.10;;
1178;SDS011;578;48.408;10.004;2023-02-18T10:44:41;1.88;;;1.20;;
1178;SDS011;578;48.408;10.004;2023-02-18T10:47:18;2.22;;;0.90;;
1178;SDS011;578;48.408;10.004;2023-02-18T10:49:56;2.40;;;0.90;;
1178;SDS011;578;48.408;10.004;2023-02-18T10:52:25;1.30;;;0.90;;
1178;SDS011;578;48.408;10.004;2023-02-18T10:54:58;1.77;;;1.10;;
1178;SDS011;578;48.408;10.004;2023-02-18T10:57:28;2.40;;;0.90;;
1178;SDS011;578;48.408;10.004;2023-02-18T10:59:57;4.03;;;1.10;;
1178;SDS011;578;48.408;10.004;2023-02-18T11:02:27;1.33;;;1.00;;
1178;SDS011;578;48.408;10.004;2023-02-18T11:04:57;3.00;;;0.90;;
1178;SDS011;578;48.408;10.004;2023-02-18T11:07:28;1.30;;;1.00;;
1178;SDS011;578;48.408;10.004;2023-02-18T11:09:58;1.40;;;0.90;;
1178;SDS011;578;48.408;10.004;2023-02-18T11:12:28;1.67;;;0.85;;
1178;SDS011;578;48.408;10.004;2023-02-18T11:15:15;1.50;;;1.00;;
1178;SDS011;578;48.408;10.004;2023-02-18T11:17:45;2.13;;;1.02;;
1178;SDS011;578;48.408;10.004;2023-02-18T11:20:27;1.75;;;1.00;;
1178;SDS011;578;48.408;10.004;2023-02-18T11:22:56;2.63;;;1.25;;
1178;SDS011;578;48.408;10.004;2023-02-18T11:25:26;1.80;;;1.20;;
1178;SDS011;578;48.408;10.004;2023-02-18T11:27:58;3.90;;;1.20;;
1178;SDS011;578;48.408;10.004;2023-02-18T11:30:30;2.20;;;1.02;;
1178;SDS011;578;48.408;10.004;2023-02-18T11:32:59;3.58;;;0.90;;
1178;SDS011;578;48.408;10.004;2023-02-18T11:35:29;2.90;;;1.20;;
1178;SDS011;578;48.408;10.004;2023-02-18T11:37:58;1.60;;;0.85;;
1178;SDS011;578;48.408;10.004;2023-02-18T11:40:29;1.70;;;0.80;;
1178;SDS011;578;48.408;10.004;2023-02-18T11:43:04;1.75;;;1.00;;
1178;SDS011;578;48.408;10.004;2023-02-18T11:45:32;1.70;;;0.90;;
1178;SDS011;578;48.408;10.004;2023-02-18T11:48:00;6.00;;;1.45;;
1178;SDS011;578;48.408;10.004;2023-02-18T11:50:31;2.38;;;1.10;;
1178;SDS011;578;48.408;10.004;2023-02-18T11:52:59;2.72;;;1.70;;
1178;SDS011;578;48.408;10.004;2023-02-18T11:55:26;3.75;;;2.47;;
1178;SDS011;578;48.408;10.004;2023-02-18T11:57:57;2.40;;;1.67;;
1178;SDS011;578;48.408;10.004;2023-02-18T12:00:32;3.17;;;1.33;;
1178;SDS011;578;48.408;10.004;2023-02-18T12:03:07;2.60;;;1.30;;
1178;SDS011;578;48.408;10.004;2023-02-18T12:05:41;1.90;;;1.35;;
1178;SDS011;578;48.408;10.004;2023-02-18T12:08:12;2.72;;;1.30;;
1178;SDS011;578;48.408;10.004;2023-02-18T12:10:42;2.37;;;1.30;;
1178;SDS011;578;48.408;10.004;2023-02-18T12:13:16;2.45;;;1.50;;
1178;SDS011;578;48.408;10.004;2023-02-18T12:15:51;2.00;;;1.10;;
1178;SDS011;578;48.408;10.004;2023-02-18T12:18:31;2.00;;;1.08;;
1178;SDS011;578;48.408;10.004;2023-02-18T12:21:20;5.85;;;1.30;;
1178;SDS011;578;48.408;10.004;2023-02-18T12:23:58;3.28;;;1.42;;
1178;SDS011;578;48.408;10.004;2023-02-18T12:26:37;2.20;;;1.10;;
1178;SDS011;578;48.408;10.004;2023-02-18T12:29:14;2.05;;;1.20;;
1178;SDS011;578;48.408;10.004;2023-02-18T12:31:51;2.38;;;1.10;;
1178;SDS011;578;48.408;10.004;2023-02-18T12:34:33;1.38;;;0.90;;
1178;SDS011;578;48.408;10.004;2023-02-18T12:37:11;1.90;;;1.30;;
1178;SDS011;578;48.408;10.004;2023-02-18T12:39:59;1.58;;;1.00;;
1178;SDS011;578;48.408;10.004;2023-02-18T12:42:36;1.90;;;1.20;;
1178;SDS011;578;48.408;10.004;2023-02-18T12:45:18;2.80;;;0.90;;
1178;SDS011;578;48.408;10.004;2023-02-18T12:48:10;1.98;;;0.82;;
1178;SDS011;578;48.408;10.004;2023-02-18T12:50:54;1.40;;;0.70;;
1178;SDS011;578;48.408;10.004;2023-02-18T12:53:49;1.80;;;0.82;;
1178;SDS011;578;48.408;10.004;2023-02-18T12:56:33;1.20;;;0.90;;
1178;SDS011;578;48.408;10.004;2023-02-18T12:59:33;1.33;;;0.80;;
1178;SDS011;578;48.408;10.004;2023-02-18T13:02:22;1.30;;;0.75;;
1178;SDS011;578;48.408;10.004;2023-02-18T13:05:03;1.50;;;0.70;;
1178;SDS011;578;48.408;10.004;2023-02-18T13:07:43;1.77;;;0.90;;
1178;SDS011;578;48.408;10.004;2023-02-18T13:10:28;1.38;;;0.70;;
1178;SDS011;578;48.408;10.004;2023-02-18T13:13:23;1.40;;;0.70;;
1178;SDS011;578;48.408;10.004;2023-02-18T13:15:55;2.67;;;1.20;;
1178;SDS011;578;48.408;10.004;2023-02-18T13:18:26;1.60;;;1.00;;
1178;SDS011;578;48.408;10.004;2023-02-18T13:20:58;1.20;;;0.70;;
1178;SDS011;578;48.408;10.004;2023-02-18T13:23:31;1.83;;;0.80;;
1178;SDS011;578;48.408;10.004;2023-02-18T13:26:01;1.20;;;0.80;;
1178;SDS011;578;48.408;10.004;2023-02-18T13:28:31;1.70;;;0.80;;
1178;SDS011;578;48.408;10.004;2023-02-18T13:31:09;1.85;;;0.60;;
1178;SDS011;578;48.408;10.004;2023-02-18T13:33:54;1.40;;;0.80;;
1178;SDS011;578;48.408;10.004;2023-02-18T13:36:31;1.17;;;0.70;;
1178;SDS011;578;48.408;10.004;2023-02-18T13:39:05;1.83;;;0.70;;
1178;SDS011;578;48.408;10.004;2023-02-18T13:41:35;1.20;;;0.80;;
1178;SDS011;578;48.408;10.004;2023-02-18T13:44:07;2.80;;;0.80;;
1178;SDS011;578;48.408;10.004;2023-02-18T13:46:47;2.13;;;0.88;;
1178;SDS011;578;48.408;10.004;2023-02-18T13:49:16;2.40;;;0.70;;
1178;SDS011;578;48.408;10.004;2023-02-18T13:51:46;1.92;;;0.90;;
1178;SDS011;578;48.408;10.004;2023-02-18T13:54:16;2.20;;;0.70;;
1178;SDS011;578;48.408;10.004;2023-02-18T13:56:49;2.17;;;0.80;;
1178;SDS011;578;48.408;10.004;2023-02-18T13:59:19;2.60;;;1.00;;
1178;SDS011;578;48.408;10.004;2023-02-18T14:01:51;2.15;;;0.80;;
1178;SDS011;578;48.408;10.004;2023-02-18T14:07:25;1.50;;;0.80;;
1178;SDS011;578;48.408;10.004;2023-02-18T14:10:03;1.63;;;0.68;;
1178;SDS011;578;48.408;10.004;2023-02-18T14:12:35;3.20;;;0.70;;
1178;SDS011;578;48.408;10.004;2023-02-18T14:18:09;1.20;;;0.80;;
1178;SDS011;578;48.408;10.004;2023-02-18T14:20:48;2.70;;;1.40;;
1178;SDS011;578;48.408;10.004;2023-02-18T14:26:23;1.73;;;0.88;;
1178;SDS011;578;48.408;10.004;2023-02-18T14:28:55;1.50;;;0.80;;
1178;SDS011;578;48.408;10.004;2023-02-18T14:31:27;1.70;;;0.80;;
1178;SDS011;578;48.408;10.004;2023-02-18T14:34:11;1.70;;;1.00;;
1178;SDS011;578;48.408;10.004;2023-02-18T14:36:52;1.60;;;1.00;;
1178;SDS011;578;48.408;10.004;2023-02-18T14:39:32;1.75;;;1.10;;
1178;SDS011;578;48.408;10.004;2023-02-18T14:42:11;1.90;;;0.93;;
1178;SDS011;578;48.408;10.004;2023-02-18T14:44:57;2.88;;;1.20;;
1178;SDS011;578;48.408;10.004;2023-02-18T14:47:36;1.50;;;0.90;;
1178;SDS011;578;48.408;10.004;2023-02-18T14:50:15;2.50;;;1.20;;
1178;SDS011;578;48.408;10.004;2023-02-18T14:52:44;1.80;;;0.90;;
1178;SDS011;578;48.408;10.004;2023-02-18T14:55:15;1.90;;;1.10;;
1178;SDS011;578;48.408;10.004;2023-02-18T14:57:47;2.25;;;1.13;;
1178;SDS011;578;48.408;10.004;2023-02-18T15:00:17;2.30;;;0.90;;
1178;SDS011;578;48.408;10.004;2023-02-18T15:02:47;2.75;;;1.00;;
1178;SDS011;578;48.408;10.004;2023-02-18T15:05:18;1.50;;;1.00;;
1178;SDS011;578;48.408;10.004;2023-02-18T15:07:56;2.05;;;1.08;;
1178;SDS011;578;48.408;10.004;2023-02-18T15:10:30;2.58;;;1.20;;
1178;SDS011;578;48.408;10.004;2023-02-18T15:13:02;2.45;;;1.30;;
1178;SDS011;578;48.408;10.004;2023-02-18T15:15:31;2.08;;;1.00;;
1178;SDS011;578;48.408;10.004;2023-02-18T15:18:00;1.77;;;1.05;;
1178;SDS011;578;48.408;10.004;2023-02-18T15:20:30;1.50;;;1.00;;
1178;SDS011;578;48.408;10.004;2023-02-18T15:22:58;1.70;;;0.90;;
1178;SDS011;578;48.408;10.004;2023-02-18T15:25:26;1.60;;;0.90;;
1178;SDS011;578;48.408;10.004;2023-02-18T15:27:52;2.70;;;1.20;;
1178;SDS011;578;48.408;10.004;2023-02-18T15:30:20;2.07;;;1.03;;
1178;SDS011;578;48.408;10.004;2023-02-18T15:32:52;2.05;;;1.17;;
1178;SDS011;578;48.408;10.004;2023-02-18T15:35:20;1.92;;;1.10;;
1178;SDS011;578;48.408;10.004;2023-02-18T15:37:55;1.60;;;1.07;;
1178;SDS011;578;48.408;10.004;2023-02-18T15:40:23;2.03;;;1.00;;
1178;SDS011;578;48.408;10.004;2023-02-18T15:42:54;2.00;;;1.10;;
1178;SDS011;578;48.408;10.004;2023-02-18T15:45:24;1.90;;;0.80;;
1178;SDS011;578;48.408;10.004;2023-02-18T15:47:55;2.47;;;1.00;;
1178;SDS011;578;48.408;10.004;2023-02-18T15:50:24;3.53;;;1.10;;